Addison, Alabama
Current Conditions -  °F | °C
As of 5:35 PM on Thursday 18 Dec 2014 (Local Time) from KCMD Reporting Station
Overcast Overcast  
Wind Chill: 43°   Ceiling: 3900
Heat Index: 43°   Visibility: 10mi
Dew Point: 34°   Wind: 3mph
Humidity: 71%   Direction: 360°N
Pressure: 30.17"   Gusts: NA
Location:  34.2°N, 87.18°W
Report Text: KCMD 182335Z AUTO 36003KT 10SM OVC039 06/01 A3017 RMK AO2 T00600011
Loading
Personal Weather Stations






























Interactive Weather Map New forecast layout! Learn more

10-Day Weather Forecast

Advertisements
Track Severe Weather on mobile